createdAt,value
2017-07-17T00:00:01.443Z,0
2017-07-17T00:01:09.536Z,0
2017-07-17T00:02:17.640Z,0
2017-07-17T00:03:25.710Z,0
2017-07-17T00:04:33.798Z,0
2017-07-17T00:05:41.885Z,0
2017-07-17T00:06:50.044Z,0
2017-07-17T00:07:58.062Z,0
2017-07-17T00:09:06.151Z,0
2017-07-17T00:10:14.357Z,0
2017-07-17T00:11:22.325Z,0
2017-07-17T00:12:30.412Z,0
2017-07-17T00:13:38.507Z,0
2017-07-17T00:14:46.586Z,0
2017-07-17T00:15:55.259Z,0
2017-07-17T00:17:02.762Z,0
2017-07-17T00:18:10.851Z,0
2017-07-17T00:19:18.938Z,0
2017-07-17T00:20:27.025Z,0
2017-07-17T00:21:35.111Z,0
2017-07-17T00:22:43.223Z,0
2017-07-17T00:23:51.333Z,0
2017-07-17T00:24:59.377Z,0
2017-07-17T00:26:07.463Z,0
2017-07-17T00:27:15.551Z,0
2017-07-17T00:28:23.639Z,0
2017-07-17T00:29:31.734Z,0
2017-07-17T00:30:39.812Z,0
2017-07-17T00:31:47.900Z,0
2017-07-17T00:32:55.986Z,0
2017-07-17T00:34:04.074Z,0
2017-07-17T00:35:12.163Z,0
2017-07-17T00:36:20.248Z,0
2017-07-17T00:37:28.337Z,0
2017-07-17T00:38:36.425Z,0
2017-07-17T00:39:44.511Z,0
2017-07-17T00:40:52.632Z,0
2017-07-17T00:42:00.686Z,0
2017-07-17T00:43:08.772Z,0
2017-07-17T00:44:16.860Z,0
2017-07-17T00:45:24.949Z,0
2017-07-17T00:46:33.036Z,0
2017-07-17T00:47:41.123Z,0
2017-07-17T00:48:49.221Z,0
2017-07-17T00:49:57.297Z,0
2017-07-17T00:51:05.384Z,0
2017-07-17T00:52:13.496Z,0
2017-07-17T00:53:21.558Z,0
2017-07-17T00:54:29.644Z,0
2017-07-17T00:55:37.732Z,0
2017-07-17T00:56:45.820Z,0
2017-07-17T00:57:53.942Z,0
2017-07-17T00:59:01.998Z,0
2017-07-17T01:00:10.090Z,0
2017-07-17T01:01:18.175Z,0
2017-07-17T01:02:26.295Z,0
2017-07-17T01:03:34.361Z,0
2017-07-17T01:04:42.457Z,0
2017-07-17T01:05:50.537Z,0
2017-07-17T01:06:58.625Z,0
2017-07-17T01:08:06.712Z,0
2017-07-17T01:09:14.806Z,0
2017-07-17T01:10:22.928Z,0
2017-07-17T01:11:30.982Z,0
2017-07-17T01:12:39.069Z,0
2017-07-17T01:13:47.164Z,0
2017-07-17T01:14:55.316Z,0
2017-07-17T01:16:03.331Z,0
2017-07-17T01:17:11.416Z,0
2017-07-17T01:18:19.528Z,0
2017-07-17T01:19:27.594Z,0
2017-07-17T01:20:35.681Z,0
2017-07-17T01:21:43.767Z,0
2017-07-17T01:22:51.853Z,0
2017-07-17T01:23:59.942Z,0
2017-07-17T01:25:08.027Z,0
2017-07-17T01:26:16.115Z,0
2017-07-17T01:27:24.203Z,0
2017-07-17T01:28:32.288Z,0
2017-07-17T01:29:40.376Z,0
2017-07-17T01:30:48.466Z,0
2017-07-17T01:31:56.587Z,0
2017-07-17T01:33:04.639Z,0
2017-07-17T01:34:12.724Z,0
2017-07-17T01:35:20.849Z,0
2017-07-17T01:36:28.900Z,0
2017-07-17T01:37:36.987Z,0
2017-07-17T01:38:45.074Z,0
2017-07-17T01:39:53.162Z,0
2017-07-17T01:41:01.247Z,0
2017-07-17T01:42:09.336Z,0
2017-07-17T01:43:17.448Z,0
2017-07-17T01:44:25.509Z,0
2017-07-17T01:45:33.619Z,0
2017-07-17T01:46:41.682Z,0
2017-07-17T01:47:49.770Z,0
2017-07-17T01:48:57.866Z,0
2017-07-17T01:50:05.969Z,0
2017-07-17T01:51:14.032Z,0
2017-07-17T01:52:22.120Z,0
2017-07-17T01:53:30.209Z,0
2017-07-17T01:54:38.293Z,0
2017-07-17T01:55:46.437Z,0
2017-07-17T01:56:54.476Z,0
2017-07-17T01:58:02.561Z,0
2017-07-17T01:59:10.648Z,0
2017-07-17T02:00:18.758Z,0
2017-07-17T02:01:26.821Z,0
2017-07-17T02:02:34.908Z,0
2017-07-17T02:03:42.995Z,0
2017-07-17T02:04:51.084Z,0
2017-07-17T02:05:59.218Z,0
2017-07-17T02:07:07.258Z,0
2017-07-17T02:08:15.343Z,0
2017-07-17T02:09:23.435Z,0
2017-07-17T02:10:31.521Z,0
2017-07-17T02:11:39.607Z,0
2017-07-17T02:12:47.696Z,0
2017-07-17T02:13:55.783Z,0
2017-07-17T02:15:03.868Z,0
2017-07-17T02:16:11.956Z,0
2017-07-17T02:17:20.043Z,0
2017-07-17T02:18:28.138Z,0
2017-07-17T02:19:36.222Z,0
2017-07-17T02:20:44.305Z,0
2017-07-17T02:21:52.393Z,0
2017-07-17T02:23:00.508Z,0
2017-07-17T02:24:08.566Z,0
2017-07-17T02:25:16.654Z,0
2017-07-17T02:26:24.748Z,0
2017-07-17T02:27:32.835Z,0
2017-07-17T02:28:40.922Z,0
2017-07-17T02:29:49.008Z,0
2017-07-17T02:30:57.095Z,0
2017-07-17T02:32:05.186Z,0
2017-07-17T02:33:13.278Z,0
2017-07-17T02:34:21.358Z,0
2017-07-17T02:35:29.446Z,0
2017-07-17T02:36:37.532Z,0
2017-07-17T02:37:45.619Z,0
2017-07-17T02:38:53.705Z,0
2017-07-17T02:40:01.838Z,0
2017-07-17T02:41:09.877Z,0
2017-07-17T02:42:17.964Z,0
2017-07-17T02:43:26.062Z,0
2017-07-17T02:44:34.138Z,0
2017-07-17T02:45:42.227Z,0
2017-07-17T02:46:50.315Z,0
2017-07-17T02:47:58.401Z,0
2017-07-17T02:49:06.511Z,0
2017-07-17T02:50:14.599Z,0
2017-07-17T02:51:22.666Z,0
2017-07-17T02:52:30.755Z,0
2017-07-17T02:53:38.843Z,0
2017-07-17T02:54:46.929Z,0
2017-07-17T02:55:55.016Z,0
2017-07-17T02:57:03.184Z,0
2017-07-17T02:58:11.192Z,0
2017-07-17T02:59:19.276Z,0
2017-07-17T03:00:27.388Z,0
2017-07-17T03:01:35.460Z,0
2017-07-17T03:02:43.538Z,0
2017-07-17T03:03:51.626Z,0
2017-07-17T03:04:59.715Z,0
2017-07-17T03:06:07.801Z,0
2017-07-17T03:07:15.886Z,0
2017-07-17T03:08:23.973Z,0
2017-07-17T03:09:32.059Z,0
2017-07-17T03:10:40.144Z,0
2017-07-17T03:11:48.232Z,0
2017-07-17T03:12:56.383Z,0
2017-07-17T03:14:04.459Z,0
2017-07-17T03:15:12.503Z,0
2017-07-17T03:16:20.614Z,0
2017-07-17T03:17:28.674Z,0
2017-07-17T03:18:36.760Z,0
2017-07-17T03:19:44.847Z,0
2017-07-17T03:20:52.934Z,0
2017-07-17T03:22:01.021Z,0
2017-07-17T03:23:09.108Z,0
2017-07-17T03:24:17.205Z,0
2017-07-17T03:25:25.293Z,0
2017-07-17T03:26:33.378Z,0
2017-07-17T03:27:41.705Z,0
2017-07-17T03:28:49.545Z,0
2017-07-17T03:29:57.635Z,0
2017-07-17T03:31:05.812Z,0
2017-07-17T03:32:13.806Z,0
2017-07-17T03:33:21.893Z,0
2017-07-17T03:34:29.979Z,0
2017-07-17T03:35:38.069Z,0
2017-07-17T03:36:46.153Z,0
2017-07-17T03:37:54.238Z,0
2017-07-17T03:39:02.322Z,0
2017-07-17T03:40:10.417Z,0
2017-07-17T03:41:18.511Z,0
2017-07-17T03:42:26.601Z,0
2017-07-17T03:43:34.678Z,0
2017-07-17T03:44:42.773Z,0
2017-07-17T03:45:50.858Z,0
2017-07-17T03:46:58.946Z,0
2017-07-17T03:48:07.082Z,0
2017-07-17T03:49:15.120Z,0
2017-07-17T03:50:23.209Z,0
2017-07-17T03:51:31.297Z,0
2017-07-17T03:52:39.382Z,0
2017-07-17T03:53:47.467Z,0
2017-07-17T03:54:55.557Z,0
2017-07-17T03:56:03.639Z,0
2017-07-17T03:57:11.728Z,0
2017-07-17T03:58:19.816Z,0
2017-07-17T03:59:27.903Z,0
2017-07-17T04:00:35.990Z,0
2017-07-17T04:01:44.077Z,0
2017-07-17T04:02:52.165Z,4
2017-07-17T04:04:00.250Z,4
2017-07-17T04:05:08.367Z,4
2017-07-17T04:06:16.426Z,4
2017-07-17T04:07:24.512Z,0
2017-07-17T04:08:32.602Z,0
2017-07-17T04:09:40.687Z,0
2017-07-17T04:10:48.774Z,0
2017-07-17T04:11:56.862Z,0
2017-07-17T04:13:04.949Z,0
2017-07-17T04:14:13.059Z,0
2017-07-17T04:15:21.122Z,4
2017-07-17T04:16:29.237Z,4
2017-07-17T04:17:37.303Z,4
2017-07-17T04:18:45.390Z,4
2017-07-17T04:19:53.484Z,4
2017-07-17T04:21:01.564Z,0
2017-07-17T04:22:09.775Z,4
2017-07-17T04:23:17.734Z,4
2017-07-17T04:24:25.845Z,4
2017-07-17T04:25:33.908Z,4
2017-07-17T04:26:41.998Z,4
2017-07-17T04:27:50.083Z,0
2017-07-17T04:28:58.171Z,4
2017-07-17T04:30:06.313Z,4
2017-07-17T04:31:14.345Z,4
2017-07-17T04:32:22.431Z,4
2017-07-17T04:33:30.518Z,4
2017-07-17T04:34:38.606Z,4
2017-07-17T04:35:46.693Z,4
2017-07-17T04:36:55.260Z,4
2017-07-17T04:38:02.867Z,4
2017-07-17T04:39:10.953Z,4
2017-07-17T04:40:19.046Z,4
2017-07-17T04:41:27.770Z,4
2017-07-17T04:42:35.220Z,8
2017-07-17T04:43:43.306Z,8
2017-07-17T04:44:51.923Z,4
2017-07-17T04:45:59.483Z,4
2017-07-17T04:47:07.572Z,4
2017-07-17T04:48:15.659Z,4
2017-07-17T04:49:23.746Z,4
2017-07-17T04:50:31.830Z,8
2017-07-17T04:51:39.917Z,8
2017-07-17T04:52:48.607Z,8
2017-07-17T04:53:56.107Z,4
2017-07-17T04:55:04.177Z,4
2017-07-17T04:56:12.275Z,4
2017-07-17T04:57:20.357Z,8
2017-07-17T04:58:28.468Z,8
2017-07-17T04:59:36.530Z,4
2017-07-17T05:00:44.617Z,4
2017-07-17T05:01:52.701Z,8
2017-07-17T05:03:00.789Z,4
2017-07-17T05:04:08.874Z,8
2017-07-17T05:05:16.962Z,4
2017-07-17T05:06:25.060Z,8
2017-07-17T05:07:33.142Z,8
2017-07-17T05:08:41.227Z,8
2017-07-17T05:09:49.326Z,8
2017-07-17T05:10:57.402Z,8
2017-07-17T05:12:05.496Z,12
2017-07-17T05:13:13.634Z,12
2017-07-17T05:14:21.664Z,8
2017-07-17T05:15:29.750Z,8
2017-07-17T05:16:37.838Z,8
2017-07-17T05:17:45.927Z,12
2017-07-17T05:18:55.010Z,8
2017-07-17T05:20:02.108Z,8
2017-07-17T05:21:10.198Z,12
2017-07-17T05:22:18.284Z,12
2017-07-17T05:23:26.369Z,12
2017-07-17T05:24:34.459Z,12
2017-07-17T05:25:42.551Z,8
2017-07-17T05:26:50.631Z,8
2017-07-17T05:27:58.717Z,8
2017-07-17T05:29:06.805Z,8
2017-07-17T05:30:14.891Z,12
2017-07-17T05:31:22.978Z,12
2017-07-17T05:32:31.067Z,8
2017-07-17T05:33:39.154Z,8
2017-07-17T05:34:47.240Z,8
2017-07-17T05:35:55.330Z,8
2017-07-17T05:37:03.413Z,12
2017-07-17T05:38:11.501Z,12
2017-07-17T05:39:19.587Z,12
2017-07-17T05:40:27.675Z,12
2017-07-17T05:41:35.763Z,12
2017-07-17T05:42:43.850Z,12
2017-07-17T05:43:51.937Z,8
2017-07-17T05:45:00.023Z,8
2017-07-17T05:46:08.108Z,12
2017-07-17T05:47:16.220Z,12
2017-07-17T05:48:24.289Z,12
2017-07-17T05:49:32.376Z,12
2017-07-17T05:50:40.463Z,8
2017-07-17T05:51:48.550Z,8
2017-07-17T05:52:56.639Z,12
2017-07-17T05:54:04.724Z,12
2017-07-17T05:55:12.810Z,12
2017-07-17T05:56:20.897Z,8
2017-07-17T05:57:28.986Z,8
2017-07-17T05:58:37.073Z,12
2017-07-17T05:59:45.161Z,12
2017-07-17T06:00:53.247Z,12
2017-07-17T06:02:01.334Z,8
2017-07-17T06:03:09.421Z,12
2017-07-17T06:04:17.506Z,12
2017-07-17T06:05:25.593Z,12
2017-07-17T06:06:33.706Z,12
2017-07-17T06:07:41.769Z,12
2017-07-17T06:08:49.854Z,12
2017-07-17T06:09:57.942Z,12
2017-07-17T06:11:06.038Z,12
2017-07-17T06:12:14.117Z,12
2017-07-17T06:13:22.203Z,16
2017-07-17T06:14:30.297Z,12
2017-07-17T06:15:38.404Z,12
2017-07-17T06:16:46.465Z,12
2017-07-17T06:17:54.550Z,12
2017-07-17T06:19:02.646Z,12
2017-07-17T06:20:10.733Z,16
2017-07-17T06:21:18.819Z,12
2017-07-17T06:22:26.906Z,12
2017-07-17T06:23:34.994Z,12
2017-07-17T06:24:43.079Z,12
2017-07-17T06:25:51.178Z,12
2017-07-17T06:26:59.266Z,16
2017-07-17T06:28:07.341Z,16
2017-07-17T06:29:15.452Z,12
2017-07-17T06:30:23.542Z,12
2017-07-17T06:31:31.605Z,12
2017-07-17T06:32:39.689Z,16
2017-07-17T06:33:47.775Z,16
2017-07-17T06:34:55.864Z,12
2017-07-17T06:36:03.951Z,16
2017-07-17T06:37:12.037Z,16
2017-07-17T06:38:20.125Z,12
2017-07-17T06:39:28.214Z,16
2017-07-17T06:40:36.301Z,16
2017-07-17T06:41:44.508Z,12
2017-07-17T06:42:52.472Z,16
2017-07-17T06:44:00.560Z,16
2017-07-17T06:45:08.649Z,16
2017-07-17T06:46:16.734Z,16
2017-07-17T06:47:24.822Z,16
2017-07-17T06:48:32.910Z,16
2017-07-17T06:49:40.996Z,20
2017-07-17T06:50:49.085Z,28
2017-07-17T06:51:57.171Z,32
2017-07-17T06:53:05.257Z,28
2017-07-17T06:54:13.392Z,28
2017-07-17T06:55:21.431Z,36
2017-07-17T06:56:29.541Z,48
2017-07-17T06:57:37.608Z,52
2017-07-17T06:58:45.693Z,60
2017-07-17T06:59:53.900Z,60
2017-07-17T07:01:01.867Z,60
2017-07-17T07:02:09.953Z,60
2017-07-17T07:03:18.041Z,56
2017-07-17T07:04:26.128Z,56
2017-07-17T07:05:34.217Z,52
2017-07-17T07:06:42.305Z,56
2017-07-17T07:07:50.416Z,52
2017-07-17T07:08:58.477Z,52
2017-07-17T07:10:06.567Z,52
2017-07-17T07:11:14.652Z,48
2017-07-17T07:12:22.740Z,52
2017-07-17T07:13:30.829Z,48
2017-07-17T07:14:38.916Z,48
2017-07-17T07:15:47.003Z,48
2017-07-17T07:16:55.091Z,48
2017-07-17T07:18:03.177Z,48
2017-07-17T07:19:11.265Z,52
2017-07-17T07:20:19.352Z,48
2017-07-17T07:21:27.439Z,52
2017-07-17T07:22:35.548Z,52
2017-07-17T07:23:43.610Z,52
2017-07-17T07:24:51.699Z,52
2017-07-17T07:25:59.788Z,48
2017-07-17T07:27:07.873Z,52
2017-07-17T07:28:15.960Z,52
2017-07-17T07:29:24.050Z,52
2017-07-17T07:30:32.135Z,48
2017-07-17T07:31:40.223Z,48
2017-07-17T07:32:48.311Z,52
2017-07-17T07:33:56.411Z,52
2017-07-17T07:35:04.486Z,52
2017-07-17T07:36:12.576Z,52
2017-07-17T07:37:20.661Z,52
2017-07-17T07:38:28.758Z,52
2017-07-17T07:39:36.846Z,48
2017-07-17T07:40:44.933Z,52
2017-07-17T07:41:53.020Z,52
2017-07-17T07:43:01.107Z,56
2017-07-17T07:44:09.196Z,52
2017-07-17T07:45:17.289Z,56
2017-07-17T07:46:25.372Z,52
2017-07-17T07:47:33.459Z,56
2017-07-17T07:48:41.800Z,56
2017-07-17T07:49:49.639Z,52
2017-07-17T07:50:57.726Z,52
2017-07-17T07:52:05.820Z,56
2017-07-17T07:53:13.900Z,52
2017-07-17T07:54:21.988Z,56
2017-07-17T07:55:30.077Z,56
2017-07-17T07:56:38.163Z,56
2017-07-17T07:57:46.273Z,56
2017-07-17T07:58:54.339Z,56
2017-07-17T08:00:02.427Z,56
2017-07-17T08:01:10.513Z,52
2017-07-17T08:02:18.601Z,56
2017-07-17T08:03:26.686Z,56
2017-07-17T08:04:34.775Z,52
2017-07-17T08:05:42.869Z,52
2017-07-17T08:06:50.957Z,56
2017-07-17T08:07:59.047Z,52
2017-07-17T08:09:07.133Z,52
2017-07-17T08:10:15.221Z,48
2017-07-17T08:11:23.334Z,48
2017-07-17T08:12:31.423Z,48
2017-07-17T08:13:39.484Z,44
2017-07-17T08:14:47.577Z,48
2017-07-17T08:15:55.668Z,48
2017-07-17T08:17:03.754Z,52
2017-07-17T08:18:11.842Z,48
2017-07-17T08:19:19.928Z,48
2017-07-17T08:20:28.019Z,48
2017-07-17T08:21:36.105Z,48
2017-07-17T08:22:44.190Z,48
2017-07-17T08:23:52.277Z,48
2017-07-17T08:25:00.369Z,48
2017-07-17T08:26:08.455Z,44
2017-07-17T08:27:16.566Z,48
2017-07-17T08:28:24.635Z,48
2017-07-17T08:29:32.729Z,44
2017-07-17T08:30:40.810Z,44
2017-07-17T08:31:48.898Z,44
2017-07-17T08:32:56.986Z,44
2017-07-17T08:34:05.074Z,44
2017-07-17T08:35:13.162Z,44
2017-07-17T08:36:21.260Z,40
2017-07-17T08:37:29.338Z,44
2017-07-17T08:38:37.426Z,40
2017-07-17T08:39:45.514Z,44
2017-07-17T08:40:53.601Z,40
2017-07-17T08:42:01.689Z,40
2017-07-17T08:43:09.776Z,40
2017-07-17T08:44:17.865Z,40
2017-07-17T08:45:25.953Z,40
2017-07-17T08:46:34.041Z,40
2017-07-17T08:47:42.137Z,36
2017-07-17T08:48:50.216Z,40
2017-07-17T08:49:58.333Z,36
2017-07-17T08:51:06.419Z,40
2017-07-17T08:52:14.487Z,36
2017-07-17T08:53:22.575Z,36
2017-07-17T08:54:30.662Z,36
2017-07-17T08:55:38.750Z,36
2017-07-17T08:56:46.838Z,36
2017-07-17T08:57:54.926Z,36
2017-07-17T08:59:03.013Z,32
2017-07-17T09:00:11.102Z,36
2017-07-17T09:01:19.190Z,36
2017-07-17T09:02:27.279Z,36
2017-07-17T09:03:35.366Z,36
2017-07-17T09:04:43.463Z,32
2017-07-17T09:05:51.541Z,36
2017-07-17T09:06:59.630Z,36
2017-07-17T09:08:07.718Z,36
2017-07-17T09:09:15.804Z,36
2017-07-17T09:10:23.892Z,32
2017-07-17T09:11:31.980Z,36
2017-07-17T09:12:40.070Z,32
2017-07-17T09:13:48.156Z,32
2017-07-17T09:14:56.245Z,32
2017-07-17T09:16:04.340Z,32
2017-07-17T09:17:12.446Z,36
2017-07-17T09:18:20.521Z,36
2017-07-17T09:19:28.595Z,36
2017-07-17T09:20:36.682Z,32
2017-07-17T09:21:44.779Z,32
2017-07-17T09:22:52.862Z,32
2017-07-17T09:24:00.951Z,36
2017-07-17T09:25:09.044Z,32
2017-07-17T09:26:17.132Z,32
2017-07-17T09:27:25.337Z,32
2017-07-17T09:28:33.312Z,32
2017-07-17T09:29:41.393Z,32
2017-07-17T09:30:49.482Z,32
2017-07-17T09:31:57.569Z,32
2017-07-17T09:33:05.735Z,32
2017-07-17T09:34:13.747Z,36
2017-07-17T09:35:21.835Z,32
2017-07-17T09:36:29.923Z,32
2017-07-17T09:37:38.009Z,32
2017-07-17T09:38:46.096Z,32
2017-07-17T09:39:54.195Z,36
2017-07-17T09:41:02.273Z,36
2017-07-17T09:42:10.361Z,32
2017-07-17T09:43:18.475Z,32
2017-07-17T09:44:26.539Z,32
2017-07-17T09:45:34.627Z,36
2017-07-17T09:46:42.715Z,36
2017-07-17T09:47:50.802Z,36
2017-07-17T09:48:58.889Z,32
2017-07-17T09:50:07.044Z,32
2017-07-17T09:51:15.065Z,36
2017-07-17T09:52:23.153Z,36
2017-07-17T09:53:31.243Z,36
2017-07-17T09:54:39.355Z,36
2017-07-17T09:55:47.418Z,36
2017-07-17T09:56:55.506Z,36
2017-07-17T09:58:03.598Z,36
2017-07-17T09:59:11.682Z,36
2017-07-17T10:00:19.770Z,36
2017-07-17T10:01:27.858Z,32
2017-07-17T10:02:35.945Z,36
2017-07-17T10:03:44.033Z,36
2017-07-17T10:04:52.121Z,36
2017-07-17T10:06:00.237Z,40
2017-07-17T10:07:08.333Z,36
2017-07-17T10:08:16.384Z,36
2017-07-17T10:09:24.472Z,36
2017-07-17T10:10:32.561Z,36
2017-07-17T10:11:40.651Z,36
2017-07-17T10:12:48.741Z,36
2017-07-17T10:13:56.828Z,36
2017-07-17T10:15:04.919Z,40
2017-07-17T10:16:13.007Z,36
2017-07-17T10:17:21.093Z,36
2017-07-17T10:18:29.187Z,36
2017-07-17T10:19:37.288Z,40
2017-07-17T10:20:45.365Z,36
2017-07-17T10:21:53.461Z,36
2017-07-17T10:23:01.543Z,40
2017-07-17T10:24:09.627Z,40
2017-07-17T10:25:17.717Z,36
2017-07-17T10:26:25.805Z,36
2017-07-17T10:27:33.893Z,40
2017-07-17T10:28:41.984Z,40
2017-07-17T10:29:50.070Z,40
2017-07-17T10:30:58.161Z,40
2017-07-17T10:32:06.271Z,36
2017-07-17T10:33:14.361Z,40
2017-07-17T10:34:22.423Z,36
2017-07-17T10:35:30.511Z,40
2017-07-17T10:36:38.599Z,40
2017-07-17T10:37:46.686Z,40
2017-07-17T10:38:54.777Z,40
2017-07-17T10:40:02.864Z,40
2017-07-17T10:41:10.952Z,40
2017-07-17T10:42:19.042Z,40
2017-07-17T10:43:27.131Z,40
2017-07-17T10:44:35.249Z,40
2017-07-17T10:45:43.314Z,36
2017-07-17T10:46:51.409Z,40
2017-07-17T10:47:59.491Z,40
2017-07-17T10:49:07.577Z,40
2017-07-17T10:50:15.667Z,44
2017-07-17T10:51:23.755Z,44
2017-07-17T10:52:31.844Z,40
2017-07-17T10:53:39.932Z,40
2017-07-17T10:54:48.022Z,40
2017-07-17T10:55:56.108Z,44
2017-07-17T10:57:04.196Z,44
2017-07-17T10:58:12.284Z,40
2017-07-17T10:59:20.373Z,40
2017-07-17T11:00:28.461Z,44
2017-07-17T11:01:36.549Z,40
2017-07-17T11:02:44.639Z,44
2017-07-17T11:03:52.726Z,40
2017-07-17T11:05:00.831Z,44
2017-07-17T11:06:08.902Z,40
2017-07-17T11:07:16.989Z,48
2017-07-17T11:08:25.079Z,44
2017-07-17T11:09:33.170Z,44
2017-07-17T11:10:41.284Z,44
2017-07-17T11:11:49.345Z,44
2017-07-17T11:12:57.432Z,40
2017-07-17T11:14:05.546Z,44
2017-07-17T11:15:13.610Z,44
2017-07-17T11:16:21.699Z,44
2017-07-17T11:17:29.807Z,44
2017-07-17T11:18:37.876Z,44
2017-07-17T11:19:45.963Z,44
2017-07-17T11:20:54.054Z,40
2017-07-17T11:22:02.142Z,40
2017-07-17T11:23:10.230Z,44
2017-07-17T11:24:18.341Z,44
2017-07-17T11:25:26.405Z,44
2017-07-17T11:26:34.496Z,44
2017-07-17T11:27:42.583Z,44
2017-07-17T11:28:50.674Z,44
2017-07-17T11:29:58.760Z,40
2017-07-17T11:31:06.856Z,44
2017-07-17T11:32:14.944Z,44
2017-07-17T11:33:23.033Z,40
2017-07-17T11:34:31.123Z,44
2017-07-17T11:35:39.211Z,40
2017-07-17T11:36:47.301Z,36
2017-07-17T11:37:55.395Z,40
2017-07-17T11:39:03.478Z,40
2017-07-17T11:40:11.568Z,44
2017-07-17T11:41:19.656Z,44
2017-07-17T11:42:27.743Z,44
2017-07-17T11:43:35.833Z,40
2017-07-17T11:44:43.921Z,36
2017-07-17T11:45:52.010Z,36
2017-07-17T11:57:12.901Z,36
2017-07-17T11:58:20.988Z,36
2017-07-17T11:59:29.076Z,40
2017-07-17T12:00:37.164Z,40
2017-07-17T12:01:45.504Z,40
2017-07-17T12:02:53.341Z,40
2017-07-17T12:04:01.434Z,44
2017-07-17T12:06:18.744Z,44
2017-07-17T12:09:41.874Z,44
2017-07-17T12:10:49.962Z,44
2017-07-17T12:11:58.050Z,44
2017-07-17T12:13:06.141Z,48
2017-07-17T12:14:14.236Z,48
2017-07-17T12:15:22.325Z,48
2017-07-17T12:16:30.407Z,48
2017-07-17T12:17:38.497Z,32
2017-07-17T12:18:46.584Z,32
2017-07-17T12:19:54.671Z,28
2017-07-17T12:21:02.759Z,28
2017-07-17T12:22:10.847Z,24
2017-07-17T12:23:18.939Z,24
2017-07-17T12:24:27.028Z,20
2017-07-17T12:25:35.116Z,20
2017-07-17T12:26:43.206Z,20
2017-07-17T12:27:51.293Z,24
2017-07-17T12:28:59.381Z,20
2017-07-17T12:30:07.471Z,20
2017-07-17T12:31:15.565Z,28
2017-07-17T12:32:23.645Z,28
2017-07-17T12:33:31.735Z,32
2017-07-17T12:34:39.822Z,32
2017-07-17T12:35:47.912Z,20
2017-07-17T12:36:56.004Z,24
2017-07-17T12:38:04.093Z,24
2017-07-17T12:39:12.189Z,20
2017-07-17T12:40:20.272Z,20
2017-07-17T12:41:28.362Z,20
2017-07-17T12:42:36.457Z,28
2017-07-17T12:43:44.539Z,20
2017-07-17T12:44:52.628Z,20
2017-07-17T12:46:00.718Z,20
2017-07-17T12:47:08.803Z,20
2017-07-17T12:48:16.894Z,20
2017-07-17T12:49:24.983Z,24
2017-07-17T12:50:33.071Z,24
2017-07-17T12:51:41.162Z,20
2017-07-17T12:52:49.250Z,16
2017-07-17T12:53:57.335Z,20
2017-07-17T12:55:05.429Z,16
2017-07-17T12:56:13.523Z,20
2017-07-17T12:57:21.613Z,16
2017-07-17T12:58:29.703Z,20
2017-07-17T12:59:37.791Z,20
2017-07-17T13:00:45.879Z,28
2017-07-17T13:01:53.969Z,32
2017-07-17T13:03:02.056Z,36
2017-07-17T13:04:10.152Z,20
2017-07-17T13:05:18.239Z,36
2017-07-17T13:06:26.338Z,36
2017-07-17T13:07:34.421Z,40
2017-07-17T13:08:42.509Z,40
2017-07-17T13:09:50.596Z,28
2017-07-17T13:10:58.687Z,36
2017-07-17T13:12:06.774Z,36
2017-07-17T13:13:14.862Z,40
2017-07-17T13:14:22.949Z,36
2017-07-17T13:15:31.041Z,36
2017-07-17T13:16:39.130Z,28
2017-07-17T13:17:47.220Z,32
2017-07-17T13:18:55.309Z,32
2017-07-17T13:20:03.399Z,36
2017-07-17T13:21:11.486Z,36
2017-07-17T13:22:19.598Z,36
2017-07-17T13:23:27.664Z,28
2017-07-17T13:24:35.753Z,16
2017-07-17T13:25:43.852Z,20
2017-07-17T13:26:51.930Z,28
2017-07-17T13:28:00.020Z,36
2017-07-17T13:29:08.110Z,28
2017-07-17T13:30:16.199Z,32
2017-07-17T13:31:24.342Z,36
2017-07-17T13:32:32.378Z,32
2017-07-17T13:33:40.464Z,28
2017-07-17T13:34:48.555Z,20
2017-07-17T13:35:56.643Z,24
2017-07-17T13:37:04.730Z,28
2017-07-17T13:38:12.821Z,16
2017-07-17T13:39:20.908Z,24
2017-07-17T13:40:28.998Z,24
2017-07-17T13:41:37.087Z,24
2017-07-17T13:42:45.199Z,24
2017-07-17T13:43:53.288Z,24
2017-07-17T13:45:01.350Z,28
2017-07-17T13:46:09.444Z,24
2017-07-17T13:47:17.532Z,24
2017-07-17T13:48:25.621Z,24
2017-07-17T13:49:33.714Z,16
2017-07-17T13:50:41.801Z,24
2017-07-17T13:51:49.892Z,24
2017-07-17T13:54:06.192Z,24
2017-07-17T13:55:14.160Z,24
2017-07-17T13:56:22.249Z,24
2017-07-17T13:57:30.339Z,20
2017-07-17T13:58:38.425Z,20
2017-07-17T13:59:46.541Z,24
2017-07-17T14:00:54.608Z,20
2017-07-17T14:02:02.693Z,24
2017-07-17T14:03:10.783Z,24
2017-07-17T14:04:18.893Z,24
2017-07-17T14:05:26.960Z,24
2017-07-17T14:06:35.047Z,20
2017-07-17T14:07:43.139Z,20
2017-07-17T14:08:51.250Z,16
2017-07-17T14:09:59.314Z,16
2017-07-17T14:11:07.403Z,16
2017-07-17T14:12:15.500Z,16
2017-07-17T14:13:23.579Z,16
2017-07-17T14:14:31.668Z,16
2017-07-17T14:15:39.758Z,16
2017-07-17T14:16:47.848Z,20
2017-07-17T14:17:55.939Z,20
2017-07-17T14:19:04.026Z,20
2017-07-17T14:20:12.115Z,16
2017-07-17T14:21:20.286Z,28
2017-07-17T14:22:28.347Z,28
2017-07-17T14:23:36.384Z,16
2017-07-17T14:24:44.466Z,24
2017-07-17T14:25:52.558Z,16
2017-07-17T14:27:00.645Z,16
2017-07-17T14:28:08.736Z,16
2017-07-17T14:29:16.823Z,28
2017-07-17T14:30:24.911Z,24
2017-07-17T14:31:33.019Z,28
2017-07-17T14:32:41.088Z,24
2017-07-17T14:33:49.209Z,24
2017-07-17T14:34:57.283Z,24
2017-07-17T14:36:05.384Z,24
2017-07-17T14:37:13.460Z,24
2017-07-17T14:38:21.540Z,24
2017-07-17T14:39:29.636Z,16
2017-07-17T14:40:37.722Z,20
2017-07-17T14:41:45.813Z,16
2017-07-17T14:42:53.905Z,16
2017-07-17T14:44:01.994Z,16
2017-07-17T14:45:10.081Z,16
2017-07-17T14:46:18.165Z,16
2017-07-17T14:47:26.258Z,20
2017-07-17T14:48:34.370Z,24
2017-07-17T14:49:42.436Z,20
2017-07-17T14:50:50.525Z,16
2017-07-17T14:51:58.613Z,24
2017-07-17T14:53:06.702Z,24
2017-07-17T14:54:14.790Z,24
2017-07-17T14:55:22.880Z,24
2017-07-17T14:56:30.968Z,24
2017-07-17T14:57:39.056Z,24
2017-07-17T14:58:47.146Z,20
2017-07-17T14:59:55.235Z,24
2017-07-17T15:01:03.323Z,28
2017-07-17T15:02:11.412Z,24
2017-07-17T15:03:19.504Z,16
2017-07-17T15:04:27.616Z,20
2017-07-17T15:05:35.679Z,20
2017-07-17T15:06:43.770Z,16
2017-07-17T15:07:51.859Z,16
2017-07-17T15:08:59.944Z,12
2017-07-17T15:10:08.036Z,12
2017-07-17T15:11:16.124Z,12
2017-07-17T15:12:24.212Z,12
2017-07-17T15:13:32.326Z,12
2017-07-17T15:14:40.390Z,12
2017-07-17T15:15:48.487Z,12
2017-07-17T15:16:56.569Z,12
2017-07-17T15:18:04.657Z,12
2017-07-17T15:19:12.746Z,8
2017-07-17T15:20:20.836Z,8
2017-07-17T15:21:28.924Z,12
2017-07-17T15:22:37.011Z,8
2017-07-17T15:23:45.104Z,8
2017-07-17T15:24:53.193Z,8
2017-07-17T15:26:01.279Z,8
2017-07-17T15:27:09.368Z,12
2017-07-17T15:28:17.456Z,12
2017-07-17T15:29:25.545Z,12
2017-07-17T15:30:33.654Z,8
2017-07-17T15:31:41.725Z,8
2017-07-17T15:32:49.812Z,8
2017-07-17T15:33:57.903Z,12
2017-07-17T15:35:06.015Z,12
2017-07-17T15:36:14.078Z,8
2017-07-17T15:37:22.168Z,12
2017-07-17T15:38:30.258Z,12
2017-07-17T15:39:38.347Z,12
2017-07-17T15:40:46.436Z,12
2017-07-17T15:41:54.526Z,8
2017-07-17T15:43:02.616Z,12
2017-07-17T15:44:10.704Z,12
2017-07-17T15:45:18.791Z,12
2017-07-17T15:46:26.880Z,16
2017-07-17T15:47:34.967Z,12
2017-07-17T15:48:43.059Z,20
2017-07-17T15:49:51.145Z,16
2017-07-17T15:50:59.244Z,12
2017-07-17T15:52:07.332Z,12
2017-07-17T15:53:15.447Z,12
2017-07-17T15:54:23.533Z,12
2017-07-17T15:55:31.596Z,12
2017-07-17T15:56:39.695Z,12
2017-07-17T15:57:47.861Z,12
2017-07-17T15:58:55.876Z,12
2017-07-17T16:00:04.034Z,8
2017-07-17T16:01:12.053Z,8
2017-07-17T16:02:20.143Z,8
2017-07-17T16:03:28.242Z,8
2017-07-17T16:04:36.322Z,8
2017-07-17T16:05:44.412Z,8
2017-07-17T16:06:52.499Z,8
2017-07-17T16:08:00.595Z,12
2017-07-17T16:09:08.686Z,8
2017-07-17T16:10:16.774Z,8
2017-07-17T16:11:25.015Z,8
2017-07-17T16:12:32.953Z,8
2017-07-17T16:13:41.041Z,8
2017-07-17T16:14:49.130Z,8
2017-07-17T16:15:57.216Z,8
2017-07-17T16:17:05.429Z,8
2017-07-17T16:18:13.400Z,8
2017-07-17T16:19:21.512Z,8
2017-07-17T16:20:29.577Z,8
2017-07-17T16:21:37.667Z,8
2017-07-17T16:22:45.757Z,8
2017-07-17T16:23:53.846Z,8
2017-07-17T16:25:01.939Z,8
2017-07-17T16:26:10.031Z,8
2017-07-17T16:27:18.115Z,8
2017-07-17T16:28:26.205Z,12
2017-07-17T16:29:34.291Z,12
2017-07-17T16:30:42.380Z,8
2017-07-17T16:31:50.469Z,12
2017-07-17T16:32:58.558Z,12
2017-07-17T16:34:06.743Z,12
2017-07-17T16:35:14.736Z,12
2017-07-17T16:36:22.836Z,12
2017-07-17T16:37:30.924Z,8
2017-07-17T16:38:39.011Z,12